Time;durP1;ratioP1;P1;durP2;ratioP2;P2;SDS_P1;SDS_P2;PMS_P1;PMS_P2;Temp;Humidity;BMP_temperature;BMP_pressure;BME280_temperature;BME280_humidity;BME280_pressure;Samples;Min_cycle;Max_cycle;Signal;HPM_P1;HPM_P2
2021/04/23 00:00:42;;;;;;;10.00;4.60;;;9.30;56.90;;;;;;5104807;28;27577;-56
2021/04/23 00:03:38;;;;;;;8.05;4.00;;;9.20;57.10;;;;;;5104950;28;27426;-56
2021/04/23 00:06:48;;;;;;;6.35;3.50;;;9.10;57.10;;;;;;5105052;28;26919;-56
2021/04/23 00:10:15;;;;;;;7.68;3.72;;;9.10;57.50;;;;;;5105069;28;27443;-56
2021/04/23 00:13:50;;;;;;;8.85;3.95;;;9.00;57.50;;;;;;5104839;28;27492;-56
2021/04/23 00:17:24;;;;;;;9.48;3.78;;;8.90;57.60;;;;;;5104514;28;27497;-56
2021/04/23 00:21:00;;;;;;;7.68;3.78;;;8.80;57.70;;;;;;5104903;28;27431;-56
2021/04/23 00:24:21;;;;;;;8.13;4.07;;;8.70;57.90;;;;;;5104964;28;27983;-55
2021/04/23 00:27:52;;;;;;;6.00;3.10;;;8.60;58.00;;;;;;5100586;28;27611;-56
2021/04/23 00:31:02;;;;;;;5.75;3.65;;;8.60;58.20;;;;;;5104507;28;27414;-56
2021/04/23 00:34:09;;;;;;;7.07;3.08;;;8.50;58.20;;;;;;5104363;27;27457;-56
2021/04/23 00:37:15;;;;;;;6.57;3.10;;;8.50;58.40;;;;;;5103818;28;27873;-56
2021/04/23 00:40:21;;;;;;;6.75;3.08;;;8.40;58.50;;;;;;5104646;28;27394;-56
2021/04/23 00:43:56;;;;;;;6.80;3.22;;;8.30;58.70;;;;;;5100968;28;27367;-56
2021/04/23 00:47:06;;;;;;;7.22;2.83;;;8.30;58.80;;;;;;5103453;28;27662;-55
2021/04/23 00:50:32;;;;;;;7.40;3.63;;;8.20;58.60;;;;;;5103086;28;27434;-56
2021/04/23 00:53:50;;;;;;;6.68;3.05;;;8.20;58.60;;;;;;5102879;28;27515;-56
2021/04/23 00:57:04;;;;;;;6.03;2.67;;;8.20;58.70;;;;;;5104278;28;27430;-56
2021/04/23 01:00:15;;;;;;;9.70;3.92;;;8.10;58.50;;;;;;5103844;28;27399;-56
2021/04/23 01:03:22;;;;;;;5.93;2.80;;;8.10;58.80;;;;;;5103943;28;27973;-55
2021/04/23 01:06:30;;;;;;;9.85;3.50;;;8.00;58.80;;;;;;5103963;28;27477;-56
2021/04/23 01:09:40;;;;;;;5.97;2.83;;;8.00;58.90;;;;;;5104258;28;27343;-56
2021/04/23 01:13:08;;;;;;;5.00;2.97;;;8.00;58.90;;;;;;5103910;28;27497;-56
2021/04/23 01:16:50;;;;;;;7.18;2.58;;;8.00;58.90;;;;;;5100450;28;27436;-55
2021/04/23 01:20:32;;;;;;;7.15;2.63;;;8.00;59.00;;;;;;5100798;28;27370;-56
2021/04/23 01:23:49;;;;;;;7.43;3.03;;;7.90;59.10;;;;;;5100800;28;27362;-57
2021/04/23 01:26:42;;;;;;;4.72;2.47;;;7.90;59.00;;;;;;5103931;28;27378;-58
2021/04/23 01:29:30;;;;;;;4.05;2.60;;;7.80;59.00;;;;;;5100338;28;27949;-55
2021/04/23 01:32:57;;;;;;;5.30;3.40;;;7.80;59.00;;;;;;5103447;28;27386;-55
2021/04/23 01:36:23;;;;;;;5.78;2.55;;;7.80;59.20;;;;;;5103327;28;27398;-55
2021/04/23 01:39:48;;;;;;;10.02;2.70;;;7.80;59.20;;;;;;5102861;28;27415;-55
2021/04/23 01:42:54;;;;;;;12.43;2.90;;;7.80;59.10;;;;;;5102770;28;27411;-55
2021/04/23 01:46:00;;;;;;;5.55;2.80;;;7.70;59.10;;;;;;5102195;27;27473;-55
2021/04/23 01:49:27;;;;;;;9.27;2.65;;;7.70;59.00;;;;;;5103524;28;27446;-55
2021/04/23 01:52:56;;;;;;;4.82;2.47;;;7.70;59.10;;;;;;5103448;28;27477;-55
2021/04/23 01:56:07;;;;;;;6.15;2.67;;;7.70;59.00;;;;;;5103229;28;27501;-55
2021/04/23 01:59:21;;;;;;;6.03;2.40;;;7.70;58.90;;;;;;5101352;28;27547;-55
2021/04/23 02:02:32;;;;;;;5.68;2.88;;;7.70;59.10;;;;;;5099105;28;27356;-55
2021/04/23 02:05:35;;;;;;;6.43;2.63;;;7.60;59.10;;;;;;5101905;28;27468;-55
2021/04/23 02:08:40;;;;;;;6.75;2.42;;;7.60;59.10;;;;;;5101740;28;27395;-55
2021/04/23 02:11:54;;;;;;;9.32;3.08;;;7.50;59.40;;;;;;5084955;28;27348;-56
2021/04/23 02:15:10;;;;;;;4.60;2.42;;;7.40;59.30;;;;;;5103072;28;27326;-57
2021/04/23 02:19:00;;;;;;;5.30;2.42;;;7.40;59.40;;;;;;5099434;28;27343;-55
2021/04/23 02:22:05;;;;;;;5.90;2.60;;;7.40;59.40;;;;;;5102065;28;27430;-57
2021/04/23 02:25:31;;;;;;;5.35;2.55;;;7.30;59.50;;;;;;5098782;28;27398;-57
2021/04/23 02:28:51;;;;;;;4.50;2.58;;;7.30;59.60;;;;;;5102236;28;27337;-57
2021/04/23 02:32:05;;;;;;;6.05;2.58;;;7.20;59.90;;;;;;5102935;28;27536;-57
2021/04/23 02:35:17;;;;;;;5.57;2.30;;;7.10;59.90;;;;;;5102148;28;27930;-55
2021/04/23 02:38:31;;;;;;;5.00;2.53;;;7.00;60.00;;;;;;5102144;28;27470;-55
2021/04/23 02:41:38;;;;;;;5.15;2.55;;;7.00;60.10;;;;;;5102963;28;27380;-54
2021/04/23 02:44:51;;;;;;;4.65;2.10;;;6.90;60.00;;;;;;5102925;28;27327;-54
2021/04/23 02:48:05;;;;;;;4.65;2.65;;;6.90;60.10;;;;;;5102176;28;27382;-54
2021/04/23 02:51:11;;;;;;;5.35;2.28;;;6.90;60.20;;;;;;5098366;28;27533;-54
2021/04/23 02:54:19;;;;;;;4.80;2.53;;;6.80;60.20;;;;;;5102481;28;27457;-55
2021/04/23 02:57:32;;;;;;;5.47;2.30;;;6.80;61.30;;;;;;5104028;27;26987;-54
2021/04/23 03:01:00;;;;;;;4.93;2.30;;;6.80;60.40;;;;;;5105702;28;27376;-54
2021/04/23 03:04:21;;;;;;;4.88;2.08;;;6.70;60.40;;;;;;5102722;28;27316;-55
2021/04/23 03:07:26;;;;;;;7.07;3.03;;;6.70;60.30;;;;;;5105653;28;27414;-55
2021/04/23 03:10:42;;;;;;;4.78;2.40;;;6.70;60.20;;;;;;5106200;28;27316;-55
2021/04/23 03:14:10;;;;;;;5.63;2.92;;;6.70;60.20;;;;;;5105743;28;27398;-54
2021/04/23 03:17:15;;;;;;;9.95;3.53;;;6.70;60.40;;;;;;5105336;28;27399;-55
2021/04/23 03:20:22;;;;;;;4.63;2.65;;;6.70;60.20;;;;;;5105823;28;27328;-54
2021/04/23 03:23:50;;;;;;;6.95;4.32;;;6.70;60.30;;;;;;5105743;28;27440;-60
2021/04/23 03:27:42;;;;;;;6.80;2.97;;;6.70;60.30;;;;;;5102448;28;27314;-55
2021/04/23 03:30:58;;;;;;;5.50;2.63;;;6.70;60.10;;;;;;5077102;28;27465;-57
2021/04/23 03:34:09;;;;;;;9.57;3.50;;;6.60;60.20;;;;;;5105901;28;27437;-49
2021/04/23 03:37:22;;;;;;;7.10;2.60;;;6.60;60.40;;;;;;5103879;28;27391;-56
2021/04/23 03:40:50;;;;;;;4.95;3.17;;;6.50;60.40;;;;;;5105130;28;27329;-57
2021/04/23 03:44:29;;;;;;;6.38;3.05;;;6.50;60.60;;;;;;5102137;28;27463;-57
2021/04/23 03:47:35;;;;;;;7.75;2.70;;;6.40;60.50;;;;;;5104596;28;27529;-56
2021/04/23 03:50:48;;;;;;;7.07;3.00;;;6.40;60.80;;;;;;5105099;28;27418;-55
2021/04/23 03:54:11;;;;;;;7.20;2.53;;;6.40;60.70;;;;;;5101598;28;27475;-54
2021/04/23 03:57:43;;;;;;;6.03;2.90;;;6.30;61.00;;;;;;5101820;28;27403;-55
2021/04/23 04:00:51;;;;;;;6.35;2.40;;;6.30;61.00;;;;;;5105010;28;27568;-53
2021/04/23 04:04:16;;;;;;;7.40;2.78;;;6.30;61.00;;;;;;5106593;28;27590;-55
2021/04/23 04:07:28;;;;;;;4.75;2.42;;;6.20;61.10;;;;;;5106386;28;27481;-54
2021/04/23 04:10:55;;;;;;;5.10;2.70;;;6.20;61.10;;;;;;5104606;28;27328;-54
2021/04/23 04:14:26;;;;;;;5.65;2.72;;;6.20;61.90;;;;;;5106666;28;27347;-55
2021/04/23 04:17:39;;;;;;;4.47;2.50;;;6.10;60.90;;;;;;5104602;28;27424;-55
2021/04/23 04:21:26;;;;;;;7.10;2.70;;;6.20;61.10;;;;;;5102607;28;27463;-54
2021/04/23 04:24:43;;;;;;;5.22;2.70;;;6.10;61.10;;;;;;5103053;28;27651;-55
2021/04/23 04:27:55;;;;;;;4.15;2.65;;;6.10;61.30;;;;;;5106128;28;27340;-55
2021/04/23 04:31:22;;;;;;;5.38;3.03;;;6.10;61.30;;;;;;5105631;28;27482;-55
2021/04/23 04:34:41;;;;;;;4.20;2.42;;;6.00;61.30;;;;;;5106009;28;27852;-54
2021/04/23 04:38:09;;;;;;;6.72;2.50;;;6.00;61.20;;;;;;5105788;28;27469;-55
2021/04/23 04:41:59;;;;;;;5.78;2.92;;;5.90;61.50;;;;;;5105881;28;27478;-55
2021/04/23 04:45:10;;;;;;;6.20;3.13;;;6.00;61.60;;;;;;5105343;28;27379;-54
2021/04/23 04:48:15;;;;;;;7.00;2.97;;;5.90;61.50;;;;;;5103125;28;27831;-55
2021/04/23 04:51:43;;;;;;;6.82;3.13;;;5.90;61.70;;;;;;5106001;28;27437;-54
2021/04/23 04:55:24;;;;;;;10.93;3.28;;;5.90;61.90;;;;;;5102527;28;27434;-57
2021/04/23 04:58:35;;;;;;;8.90;3.13;;;5.90;61.80;;;;;;5105690;28;27484;-55
2021/04/23 05:01:41;;;;;;;8.20;3.13;;;5.90;62.10;;;;;;5104296;28;27822;-55
2021/04/23 05:04:30;;;;;;;6.40;2.70;;;5.90;62.10;;;;;;5105759;28;27477;-53
2021/04/23 05:07:27;;;;;;;7.25;3.20;;;5.90;62.30;;;;;;5104824;28;27549;-55
2021/04/23 05:10:38;;;;;;;5.15;2.80;;;5.90;62.20;;;;;;5105395;28;27399;-55
2021/04/23 05:14:05;;;;;;;4.13;2.60;;;5.90;62.60;;;;;;5105214;28;27465;-54
2021/04/23 05:17:13;;;;;;;6.15;2.95;;;5.90;62.70;;;;;;5103851;28;27411;-55
2021/04/23 05:20:20;;;;;;;6.55;2.90;;;5.90;62.80;;;;;;5103813;27;27350;-55
2021/04/23 05:23:45;;;;;;;4.15;2.53;;;5.90;62.80;;;;;;5105589;28;27374;-54
2021/04/23 05:27:17;;;;;;;6.32;3.08;;;5.90;62.80;;;;;;5105473;28;27383;-55
2021/04/23 05:30:31;;;;;;;6.85;3.15;;;5.90;62.90;;;;;;5104487;28;27484;-55
2021/04/23 05:33:59;;;;;;;5.47;3.25;;;5.90;63.00;;;;;;5104791;28;27368;-55
2021/04/23 05:36:50;;;;;;;7.63;3.10;;;6.00;63.20;;;;;;5104939;28;27365;-54
2021/04/23 05:40:18;;;;;;;6.45;3.20;;;6.00;63.20;;;;;;5105223;28;27876;-55
2021/04/23 05:43:22;;;;;;;7.55;3.28;;;6.00;63.20;;;;;;5104852;28;27662;-55
2021/04/23 05:46:34;;;;;;;8.45;3.38;;;6.10;63.20;;;;;;5104225;28;27463;-49
2021/04/23 05:50:22;;;;;;;7.40;3.22;;;6.20;63.30;;;;;;5101594;28;27440;-55
2021/04/23 05:53:59;;;;;;;6.70;3.03;;;6.30;63.30;;;;;;5104157;28;28406;-55
2021/04/23 05:57:16;;;;;;;10.68;5.32;;;6.30;63.40;;;;;;5104684;28;27414;-55
2021/04/23 06:00:44;;;;;;;9.32;4.38;;;6.40;63.50;;;;;;5104960;28;27332;-55
2021/04/23 06:04:22;;;;;;;11.82;4.30;;;6.40;63.60;;;;;;5104482;28;27476;-55
2021/04/23 06:07:39;;;;;;;9.45;4.72;;;6.50;64.20;;;;;;5103914;28;27444;-55
2021/04/23 06:10:37;;;;;;;14.82;5.22;;;6.60;64.10;;;;;;5104095;28;27374;-55
2021/04/23 06:13:45;;;;;;;8.88;5.10;;;6.70;64.20;;;;;;5104818;28;27479;-55
2021/04/23 06:17:12;;;;;;;12.70;6.05;;;6.70;64.40;;;;;;5101490;28;27501;-53
2021/04/23 06:20:09;;;;;;;9.77;5.35;;;6.80;64.20;;;;;;5101081;28;27320;-54
2021/04/23 06:23:36;;;;;;;13.45;5.22;;;7.00;64.30;;;;;;5100665;28;27420;-49
2021/04/23 06:27:43;;;;;;;11.00;5.50;;;7.20;64.10;;;;;;5100869;28;26924;-55
2021/04/23 06:31:11;;;;;;;8.45;5.10;;;7.60;63.80;;;;;;5104282;28;27454;-55
2021/04/23 06:34:14;;;;;;;13.73;5.43;;;8.10;62.90;;;;;;5107890;28;27477;-56
2021/04/23 06:37:46;;;;;;;7.65;4.32;;;8.60;61.00;;;;;;5107858;28;27419;-56
2021/04/23 06:41:14;;;;;;;10.13;6.10;;;9.10;60.00;;;;;;5106996;28;27643;-55
2021/04/23 06:45:05;;;;;;;9.70;4.63;;;9.60;57.30;;;;;;5104192;28;27469;-54
2021/04/23 06:48:34;;;;;;;13.68;5.68;;;10.10;57.10;;;;;;5107061;28;27683;-55
2021/04/23 06:51:47;;;;;;;10.05;4.80;;;10.50;56.40;;;;;;5107336;28;27429;-55
2021/04/23 06:55:15;;;;;;;12.90;5.75;;;10.90;54.70;;;;;;5107713;28;27422;-56
2021/04/23 06:59:01;;;;;;;9.70;4.85;;;11.30;54.10;;;;;;5107345;28;27410;-55
2021/04/23 07:02:07;;;;;;;13.43;6.00;;;11.70;53.20;;;;;;5107319;28;27461;-55
2021/04/23 07:05:38;;;;;;;11.75;6.00;;;12.10;53.00;;;;;;5107166;28;27503;-55
2021/04/23 07:08:36;;;;;;;11.27;5.63;;;12.30;52.90;;;;;;5106621;28;27473;-56
2021/04/23 07:12:07;;;;;;;17.00;5.70;;;12.70;52.20;;;;;;5106812;28;27470;-56
2021/04/23 07:15:16;;;;;;;12.70;6.07;;;13.00;52.50;;;;;;5107309;28;27497;-56
2021/04/23 07:18:44;;;;;;;12.15;5.85;;;13.30;51.00;;;;;;5106148;28;27600;-56
2021/04/23 07:22:12;;;;;;;8.63;4.43;;;13.60;50.00;;;;;;5106633;28;27332;-56
2021/04/23 07:25:11;;;;;;;13.27;5.15;;;13.90;50.00;;;;;;5106609;28;27555;-56
2021/04/23 07:28:17;;;;;;;10.63;5.63;;;14.20;49.00;;;;;;5088558;28;27449;-56
2021/04/23 07:31:24;;;;;;;16.00;5.15;;;14.40;50.10;;;;;;5106661;28;27375;-56
2021/04/23 07:34:50;;;;;;;9.23;4.50;;;14.60;49.00;;;;;;5106860;28;27416;-56
2021/04/23 07:37:57;;;;;;;7.85;4.80;;;14.80;48.50;;;;;;5106166;28;27335;-56
2021/04/23 07:40:54;;;;;;;11.20;4.95;;;15.10;48.30;;;;;;5106575;28;27462;-56
2021/04/23 07:44:00;;;;;;;8.77;5.20;;;15.30;48.60;;;;;;5105585;27;27476;-56
2021/04/23 07:47:27;;;;;;;8.25;4.28;;;15.60;47.90;;;;;;5105683;28;27441;-56
2021/04/23 07:50:39;;;;;;;11.10;4.55;;;15.80;48.70;;;;;;5106442;28;27328;-57
2021/04/23 07:54:06;;;;;;;9.02;4.35;;;16.20;47.60;;;;;;5105145;28;27462;-57
2021/04/23 07:57:35;;;;;;;7.80;4.05;;;16.50;46.10;;;;;;5106951;28;27363;-57
2021/04/23 08:00:46;;;;;;;11.75;4.28;;;16.80;45.30;;;;;;5106258;28;27401;-57
2021/04/23 08:03:47;;;;;;;9.38;4.35;;;17.10;46.40;;;;;;5106579;28;27364;-57
2021/04/23 08:06:56;;;;;;;13.75;5.40;;;17.40;45.10;;;;;;5077764;28;27921;-57
2021/04/23 08:10:04;;;;;;;11.45;4.93;;;17.70;44.00;;;;;;5106394;28;27397;-57
2021/04/23 08:13:09;;;;;;;7.05;4.53;;;18.00;44.60;;;;;;5105763;28;27373;-57
2021/04/23 08:15:55;;;;;;;7.50;3.78;;;18.20;43.00;;;;;;5106092;28;27324;-57
2021/04/23 08:19:01;;;;;;;10.80;4.72;;;18.40;42.60;;;;;;5105265;28;27405;-57
2021/04/23 08:22:32;;;;;;;13.10;4.03;;;18.70;43.00;;;;;;5106074;28;27412;-57
2021/04/23 08:25:58;;;;;;;9.15;4.00;;;18.90;44.20;;;;;;5106266;28;27411;-57
2021/04/23 08:29:23;;;;;;;10.55;4.45;;;19.10;44.70;;;;;;5106469;28;27346;-57
2021/04/23 08:32:29;;;;;;;14.65;4.22;;;19.40;44.60;;;;;;5105586;28;27375;-57
2021/04/23 08:35:37;;;;;;;8.98;3.95;;;19.60;42.90;;;;;;5105593;28;27363;-58
2021/04/23 08:38:35;;;;;;;11.93;3.78;;;19.80;43.70;;;;;;5105831;28;27460;-58
2021/04/23 08:42:02;;;;;;;12.18;3.60;;;19.90;42.50;;;;;;5106216;28;27511;-58
2021/04/23 08:45:52;;;;;;;17.65;4.00;;;20.00;41.50;;;;;;5104974;28;27383;-58
2021/04/23 08:48:58;;;;;;;8.60;3.72;;;20.10;40.50;;;;;;5105228;28;27604;-57
2021/04/23 08:52:11;;;;;;;9.45;3.42;;;20.20;42.40;;;;;;5105798;28;27339;-57
2021/04/23 08:55:38;;;;;;;12.23;4.13;;;20.30;41.20;;;;;;5105300;27;27553;-58
2021/04/23 08:58:37;;;;;;;8.25;3.92;;;20.40;41.10;;;;;;5105696;28;27467;-58
2021/04/23 09:01:26;;;;;;;10.57;3.20;;;20.60;41.40;;;;;;5104646;28;27446;-57
2021/04/23 09:04:33;;;;;;;6.72;3.40;;;20.70;39.90;;;;;;5090751;28;27502;-57
2021/04/23 09:07:38;;;;;;;7.57;3.75;;;20.90;39.90;;;;;;5105407;28;27428;-58
2021/04/23 09:11:05;;;;;;;8.55;3.92;;;21.00;39.80;;;;;;5104639;28;27550;-58
2021/04/23 09:13:54;;;;;;;10.00;4.07;;;21.20;40.40;;;;;;5104358;28;27398;-58
2021/04/23 09:16:54;;;;;;;8.75;3.33;;;21.40;40.10;;;;;;5105404;28;27321;-58
2021/04/23 09:20:20;;;;;;;7.88;4.05;;;21.50;38.20;;;;;;5105297;28;27458;-58
2021/04/23 09:23:48;;;;;;;9.48;3.33;;;21.60;39.10;;;;;;5103985;28;27569;-58
2021/04/23 09:27:15;;;;;;;14.10;4.10;;;21.70;39.80;;;;;;5103693;28;27431;-58
2021/04/23 09:30:25;;;;;;;13.13;4.30;;;21.80;38.50;;;;;;5104875;28;27444;-58
2021/04/23 09:33:48;;;;;;;15.27;4.25;;;21.90;40.50;;;;;;5104844;28;27403;-58
2021/04/23 09:36:44;;;;;;;12.60;3.42;;;22.00;38.60;;;;;;5104979;28;27415;-58
2021/04/23 09:40:07;;;;;;;12.05;3.38;;;22.10;39.20;;;;;;5090279;28;27420;-58
2021/04/23 09:42:58;;;;;;;11.27;3.65;;;22.20;40.10;;;;;;5104957;28;26892;-58
2021/04/23 09:46:34;;;;;;;8.50;3.53;;;22.30;38.80;;;;;;5104920;28;27379;-58
2021/04/23 09:49:39;;;;;;;6.45;3.15;;;22.30;37.90;;;;;;5104117;28;27402;-59
2021/04/23 09:52:51;;;;;;;11.70;4.47;;;22.30;38.40;;;;;;5104977;28;27483;-59
2021/04/23 09:55:49;;;;;;;10.23;3.67;;;22.40;38.20;;;;;;5103983;28;27430;-59
2021/04/23 09:59:16;;;;;;;9.07;3.55;;;22.40;37.30;;;;;;5104082;28;27388;-59
2021/04/23 10:02:28;;;;;;;10.98;3.63;;;22.40;37.20;;;;;;5101301;28;27371;-59
2021/04/23 10:06:02;;;;;;;8.40;3.33;;;22.50;38.10;;;;;;5101331;28;27344;-58
2021/04/23 10:09:29;;;;;;;9.05;3.90;;;22.60;37.50;;;;;;5104828;28;27376;-59
2021/04/23 10:12:50;;;;;;;8.68;3.28;;;22.60;37.50;;;;;;5103225;28;27449;-58
2021/04/23 10:15:40;;;;;;;8.38;3.22;;;22.60;37.60;;;;;;5104720;28;27466;-59
2021/04/23 10:18:48;;;;;;;12.23;3.22;;;22.60;37.90;;;;;;5103752;28;27405;-59
2021/04/23 10:22:15;;;;;;;9.68;4.22;;;22.60;39.10;;;;;;5104320;28;27423;-59
2021/04/23 10:25:22;;;;;;;9.32;4.35;;;22.60;39.10;;;;;;5103799;28;27639;-59
2021/04/23 10:28:29;;;;;;;9.60;2.92;;;22.60;39.90;;;;;;5103803;28;27335;-59
2021/04/23 10:31:56;;;;;;;12.70;4.00;;;22.60;41.20;;;;;;5100691;28;27417;-59
2021/04/23 10:35:43;;;;;;;6.35;3.42;;;22.60;40.50;;;;;;5103274;28;27504;-59
2021/04/23 10:38:52;;;;;;;8.43;3.67;;;22.60;40.90;;;;;;5103242;28;27496;-59
2021/04/23 10:41:58;;;;;;;11.00;3.78;;;22.60;40.50;;;;;;5103349;28;27457;-59
2021/04/23 10:45:18;;;;;;;14.45;3.70;;;22.40;39.60;;;;;;5104273;28;27379;-59
2021/04/23 10:48:24;;;;;;;9.88;3.17;;;22.30;40.40;;;;;;5102536;28;27446;-59
2021/04/23 10:51:20;;;;;;;7.97;3.38;;;22.30;41.80;;;;;;5103819;28;27407;-59
2021/04/23 10:54:35;;;;;;;13.88;2.90;;;22.30;43.30;;;;;;5104066;28;27419;-59
2021/04/23 10:57:52;;;;;;;8.10;3.80;;;22.40;43.30;;;;;;5104206;28;27423;-59
2021/04/23 11:01:13;;;;;;;9.48;3.45;;;22.50;42.60;;;;;;5103974;28;26895;-59
2021/04/23 11:04:11;;;;;;;7.43;3.40;;;22.50;44.20;;;;;;5103524;28;27417;-59
2021/04/23 11:07:38;;;;;;;8.48;2.70;;;22.50;42.60;;;;;;5100476;28;27455;-59
2021/04/23 11:11:08;;;;;;;6.50;2.88;;;22.50;41.10;;;;;;5103327;28;27366;-59
2021/04/23 11:14:24;;;;;;;8.02;2.92;;;22.50;42.30;;;;;;5103788;28;27413;-59
2021/04/23 11:17:20;;;;;;;10.20;3.10;;;22.70;46.30;;;;;;5101500;28;27407;-59
2021/04/23 11:21:06;;;;;;;11.75;3.60;;;22.90;44.90;;;;;;5107147;28;27465;-59
2021/04/23 11:24:13;;;;;;;6.55;2.25;;;23.00;40.80;;;;;;5106937;28;27455;-59
2021/04/23 11:27:56;;;;;;;8.43;2.80;;;23.20;44.10;;;;;;5106958;28;27507;-59
2021/04/23 11:31:01;;;;;;;10.55;3.40;;;23.40;43.30;;;;;;5107197;28;27426;-59
2021/04/23 11:34:11;;;;;;;6.18;2.80;;;23.40;42.00;;;;;;5106948;28;27398;-59
2021/04/23 11:37:23;;;;;;;6.68;2.90;;;23.40;40.70;;;;;;5091832;28;27395;-59
2021/04/23 11:40:25;;;;;;;6.90;2.78;;;23.40;41.80;;;;;;5107239;28;27340;-59
2021/04/23 11:43:36;;;;;;;9.38;3.33;;;23.30;40.30;;;;;;5106750;28;27520;-59
2021/04/23 11:46:52;;;;;;;8.05;2.65;;;23.20;39.40;;;;;;5105875;28;27391;-59
2021/04/23 11:50:20;;;;;;;7.20;3.00;;;23.10;44.20;;;;;;5106696;28;27463;-59
2021/04/23 11:54:00;;;;;;;6.15;2.92;;;23.20;46.10;;;;;;5103340;28;27406;-59
2021/04/23 11:57:12;;;;;;;7.40;2.97;;;23.30;42.20;;;;;;5106793;28;27394;-59
2021/04/23 12:00:06;;;;;;;16.38;4.30;;;23.30;41.30;;;;;;5105059;28;27422;-59
2021/04/23 12:03:25;;;;;;;8.40;3.35;;;23.20;40.50;;;;;;5106198;28;27484;-59
2021/04/23 12:06:31;;;;;;;6.47;3.05;;;23.20;45.90;;;;;;5106516;28;27389;-59
2021/04/23 12:09:38;;;;;;;9.95;4.25;;;23.20;43.90;;;;;;5106503;28;27320;-59
2021/04/23 12:12:34;;;;;;;7.38;3.28;;;23.20;42.50;;;;;;5106157;28;27411;-59
2021/04/23 12:15:22;;;;;;;9.52;2.88;;;23.20;41.90;;;;;;5106293;28;27461;-59
2021/04/23 12:18:09;;;;;;;9.15;3.40;;;23.10;45.40;;;;;;5106561;28;27327;-59
2021/04/23 12:21:34;;;;;;;8.43;3.75;;;23.10;47.00;;;;;;5105743;28;27360;-59
2021/04/23 12:25:02;;;;;;;8.77;2.80;;;23.00;44.40;;;;;;5106364;28;27390;-59
2021/04/23 12:28:45;;;;;;;5.88;3.03;;;22.90;47.20;;;;;;5106161;28;27376;-59
2021/04/23 12:32:11;;;;;;;9.93;3.33;;;23.00;45.10;;;;;;5106295;28;27425;-58
2021/04/23 12:35:11;;;;;;;6.25;2.63;;;23.00;45.50;;;;;;5106258;28;27383;-58
2021/04/23 12:38:34;;;;;;;5.47;2.75;;;22.90;46.60;;;;;;5106303;28;27413;-58
2021/04/23 12:42:01;;;;;;;5.82;3.03;;;22.90;45.80;;;;;;5105780;28;27415;-58
2021/04/23 12:45:28;;;;;;;6.75;2.78;;;22.80;50.00;;;;;;5105623;28;27402;-58
2021/04/23 12:48:55;;;;;;;8.95;3.13;;;22.80;46.90;;;;;;5105056;28;27398;-58
2021/04/23 12:52:07;;;;;;;9.35;3.72;;;22.90;44.70;;;;;;5102452;28;27339;-59
2021/04/23 12:55:12;;;;;;;6.28;3.13;;;22.80;43.60;;;;;;5105656;28;27348;-58
2021/04/23 12:58:19;;;;;;;6.80;3.55;;;22.70;37.90;;;;;;5105678;28;27366;-58
2021/04/23 13:01:13;;;;;;;6.00;2.35;;;22.50;36.20;;;;;;5105131;28;27387;-58
2021/04/23 13:04:21;;;;;;;8.45;2.65;;;22.30;42.80;;;;;;5104749;28;27339;-58
2021/04/23 13:07:53;;;;;;;6.50;2.78;;;22.20;45.50;;;;;;5105168;28;27376;-58
2021/04/23 13:10:43;;;;;;;5.45;2.60;;;22.20;45.60;;;;;;5105500;28;27316;-58
2021/04/23 13:13:38;;;;;;;9.30;3.30;;;22.20;47.10;;;;;;5105410;28;27470;-58
2021/04/23 13:17:02;;;;;;;6.88;2.90;;;22.20;47.50;;;;;;5104523;28;27496;-58
2021/04/23 13:20:39;;;;;;;5.45;2.95;;;22.30;48.70;;;;;;5101904;28;27473;-58
2021/04/23 13:23:45;;;;;;;8.80;2.58;;;22.30;47.20;;;;;;5104826;28;27533;-58
2021/04/23 13:26:30;;;;;;;9.52;3.80;;;22.30;49.80;;;;;;5105200;28;27470;-58
2021/04/23 13:29:24;;;;;;;6.55;3.55;;;22.30;45.40;;;;;;5105392;28;27955;-58
2021/04/23 13:32:18;;;;;;;8.45;3.53;;;22.30;48.70;;;;;;5101015;28;27436;-58
2021/04/23 13:35:30;;;;;;;6.78;2.70;;;22.30;43.90;;;;;;5104320;28;27427;-58
2021/04/23 13:38:58;;;;;;;10.15;3.58;;;22.30;47.80;;;;;;5101422;28;27317;-58
2021/04/23 13:42:25;;;;;;;8.73;3.38;;;22.30;48.10;;;;;;5103956;28;27852;-58
2021/04/23 13:45:41;;;;;;;9.68;3.47;;;22.20;44.10;;;;;;5104071;28;27582;-58
2021/04/23 13:49:10;;;;;;;8.38;3.15;;;22.20;47.70;;;;;;5103962;28;27461;-58
2021/04/23 13:52:13;;;;;;;6.47;2.97;;;22.20;49.00;;;;;;5104797;28;27409;-58
2021/04/23 13:55:08;;;;;;;8.77;2.63;;;22.10;48.80;;;;;;5104732;28;27359;-58
2021/04/23 13:58:41;;;;;;;3.38;2.15;;;22.20;47.20;;;;;;5104456;28;27489;-58
2021/04/23 14:02:03;;;;;;;8.43;3.03;;;22.20;45.70;;;;;;5103525;28;27419;-58
2021/04/23 14:05:03;;;;;;;4.22;3.30;;;22.30;47.90;;;;;;5104605;28;27410;-59
2021/04/23 14:08:21;;;;;;;4.93;2.53;;;22.40;47.90;;;;;;5104576;28;27362;-58
2021/04/23 14:11:11;;;;;;;5.82;2.90;;;22.60;42.60;;;;;;5104840;28;27556;-58
2021/04/23 14:14:25;;;;;;;7.90;3.45;;;22.60;39.80;;;;;;5103848;28;27431;-58
2021/04/23 14:17:31;;;;;;;6.35;2.53;;;22.60;43.00;;;;;;5104471;28;27392;-58
2021/04/23 14:20:25;;;;;;;6.95;2.97;;;22.50;43.60;;;;;;5104405;28;27483;-59
2021/04/23 14:23:31;;;;;;;7.63;2.53;;;22.40;46.10;;;;;;5104519;28;27434;-58
2021/04/23 14:26:42;;;;;;;6.88;3.03;;;22.30;46.10;;;;;;5104427;28;27449;-58
2021/04/23 14:30:02;;;;;;;8.38;2.75;;;22.30;43.90;;;;;;5102795;28;27469;-59
2021/04/23 14:33:28;;;;;;;3.53;2.25;;;22.20;45.60;;;;;;5101311;28;27324;-58
2021/04/23 14:36:42;;;;;;;7.63;2.88;;;22.10;47.90;;;;;;5104307;28;27339;-58
2021/04/23 14:39:47;;;;;;;8.07;3.40;;;22.10;48.40;;;;;;5103265;28;27497;-58
2021/04/23 14:42:58;;;;;;;6.20;3.25;;;22.10;43.60;;;;;;5104218;28;27339;-58
2021/04/23 14:46:18;;;;;;;5.88;2.65;;;22.00;41.10;;;;;;5103754;28;27418;-58
2021/04/23 14:49:29;;;;;;;6.72;3.70;;;22.00;47.00;;;;;;5088717;28;27375;-58
2021/04/23 14:52:55;;;;;;;7.53;3.50;;;22.00;41.40;;;;;;5104295;27;27469;-58
2021/04/23 14:56:22;;;;;;;6.65;2.67;;;21.90;44.90;;;;;;5107291;28;27520;-58
2021/04/23 15:00:05;;;;;;;5.63;2.60;;;21.90;44.60;;;;;;5103929;28;27911;-58
2021/04/23 15:02:58;;;;;;;9.13;2.80;;;21.90;43.50;;;;;;5107552;28;27410;-58
2021/04/23 15:05:52;;;;;;;4.43;3.00;;;21.90;43.10;;;;;;5107848;28;27426;-58
2021/04/23 15:09:20;;;;;;;6.45;2.50;;;21.90;44.20;;;;;;5103450;28;27427;-58
2021/04/23 15:12:53;;;;;;;5.70;2.60;;;21.90;45.00;;;;;;5107360;28;27462;-58
2021/04/23 15:15:54;;;;;;;7.05;2.33;;;21.90;42.30;;;;;;5107602;28;27418;-57
2021/04/23 15:19:05;;;;;;;7.97;3.13;;;21.90;44.30;;;;;;5107397;28;27372;-58
2021/04/23 15:22:07;;;;;;;10.25;3.83;;;21.90;40.40;;;;;;5106887;28;27487;-57
2021/04/23 15:25:14;;;;;;;6.07;2.55;;;21.90;39.50;;;;;;5107402;28;27556;-57
2021/04/23 15:28:27;;;;;;;6.03;3.20;;;21.90;42.00;;;;;;5107159;28;27474;-58
2021/04/23 15:31:54;;;;;;;9.10;3.25;;;21.80;38.70;;;;;;5107208;28;27481;-57
2021/04/23 15:35:22;;;;;;;5.95;3.28;;;21.60;38.10;;;;;;5107080;28;27446;-57
2021/04/23 15:38:29;;;;;;;8.13;3.00;;;21.50;41.70;;;;;;5106356;28;27640;-57
2021/04/23 15:41:42;;;;;;;8.98;4.63;;;21.50;41.00;;;;;;5106909;28;27346;-57
2021/04/23 15:44:27;;;;;;;8.40;2.92;;;21.50;40.70;;;;;;5107221;28;27384;-57
2021/04/23 15:47:41;;;;;;;17.38;10.70;;;21.40;43.70;;;;;;5106268;28;27389;-57
2021/04/23 15:50:48;;;;;;;7.80;4.35;;;21.40;41.10;;;;;;5106529;28;27460;-57
2021/04/23 15:53:59;;;;;;;10.95;4.30;;;21.50;41.10;;;;;;5106208;28;27381;-57
2021/04/23 15:56:52;;;;;;;10.48;6.13;;;21.40;39.10;;;;;;5106521;28;27415;-57
2021/04/23 16:00:19;;;;;;;8.68;4.20;;;21.50;38.70;;;;;;5106715;28;27328;-57
2021/04/23 16:04:02;;;;;;;4.72;3.28;;;21.50;39.90;;;;;;5106060;27;27618;-57
2021/04/23 16:07:30;;;;;;;5.68;3.40;;;21.50;39.20;;;;;;5106494;28;27422;-57
2021/04/23 16:11:01;;;;;;;4.88;3.22;;;21.40;40.30;;;;;;5104742;28;27343;-57
2021/04/23 16:14:26;;;;;;;5.65;3.10;;;21.30;38.70;;;;;;5106450;28;27373;-57
2021/04/23 16:17:39;;;;;;;6.60;2.78;;;21.30;41.70;;;;;;5105516;28;27607;-57
2021/04/23 16:21:06;;;;;;;5.28;2.60;;;21.30;40.80;;;;;;5103352;28;27379;-57
2021/04/23 16:25:16;;;;;;;6.90;2.72;;;21.30;40.50;;;;;;5102551;28;27379;-57
2021/04/23 16:28:47;;;;;;;5.60;2.97;;;21.30;39.80;;;;;;5105562;28;27558;-57
2021/04/23 16:32:15;;;;;;;4.85;2.60;;;21.40;39.50;;;;;;5104499;28;27431;-57
2021/04/23 16:35:30;;;;;;;6.55;2.47;;;21.40;38.90;;;;;;5106582;28;27473;-59
2021/04/23 16:38:57;;;;;;;6.82;2.92;;;21.30;38.30;;;;;;5106199;28;27529;-58
2021/04/23 16:42:44;;;;;;;5.15;2.40;;;21.30;38.60;;;;;;5106366;28;27473;-58
2021/04/23 16:46:03;;;;;;;7.63;2.60;;;21.30;37.60;;;;;;5102605;28;27449;-59
2021/04/23 16:49:31;;;;;;;7.43;3.90;;;21.20;38.50;;;;;;5065399;28;27618;-58
2021/04/23 16:53:11;;;;;;;4.43;2.33;;;21.10;39.00;;;;;;5065201;28;27337;-58
2021/04/23 16:56:21;;;;;;;6.55;3.42;;;21.00;39.90;;;;;;5065385;28;27371;-57
2021/04/23 16:59:34;;;;;;;7.25;3.05;;;20.90;37.90;;;;;;5065052;28;27467;-58
2021/04/23 17:03:01;;;;;;;8.10;3.40;;;20.90;39.00;;;;;;5064855;28;27556;-58